sensor_id;sensor_type;location;lat;lon;timestamp;temperature;humidity
45619;DHT22;31343;47.520;19.144;2023-08-06T00:02:01;20.60;99.90
45619;DHT22;31343;47.520;19.144;2023-08-06T00:04:27;20.50;99.90
45619;DHT22;31343;47.520;19.144;2023-08-06T00:06:57;20.50;99.90
45619;DHT22;31343;47.520;19.144;2023-08-06T00:09:23;20.50;99.90
45619;DHT22;31343;47.520;19.144;2023-08-06T00:11:51;20.40;99.90
45619;DHT22;31343;47.520;19.144;2023-08-06T00:14:22;20.50;99.90
45619;DHT22;31343;47.520;19.144;2023-08-06T00:16:49;20.40;99.90
45619;DHT22;31343;47.520;19.144;2023-08-06T00:19:19;20.40;99.90
45619;DHT22;31343;47.520;19.144;2023-08-06T00:21:46;20.50;99.90
45619;DHT22;31343;47.520;19.144;2023-08-06T00:24:12;20.40;99.90
45619;DHT22;31343;47.520;19.144;2023-08-06T00:26:39;20.40;99.90
45619;DHT22;31343;47.520;19.144;2023-08-06T00:29:05;20.50;99.90
45619;DHT22;31343;47.520;19.144;2023-08-06T00:31:36;20.50;99.90
45619;DHT22;31343;47.520;19.144;2023-08-06T00:34:01;20.50;99.90
45619;DHT22;31343;47.520;19.144;2023-08-06T00:36:27;20.60;99.90
45619;DHT22;31343;47.520;19.144;2023-08-06T00:39:00;20.60;99.90
45619;DHT22;31343;47.520;19.144;2023-08-06T00:41:28;20.60;99.90
45619;DHT22;31343;47.520;19.144;2023-08-06T00:43:54;20.60;99.90
45619;DHT22;31343;47.520;19.144;2023-08-06T00:46:20;20.60;99.90
45619;DHT22;31343;47.520;19.144;2023-08-06T00:48:50;20.60;99.90
45619;DHT22;31343;47.520;19.144;2023-08-06T00:51:16;20.60;99.90
45619;DHT22;31343;47.520;19.144;2023-08-06T00:53:43;20.60;99.90
45619;DHT22;31343;47.520;19.144;2023-08-06T00:56:10;20.60;99.90
45619;DHT22;31343;47.520;19.144;2023-08-06T00:58:36;20.60;99.90
45619;DHT22;31343;47.520;19.144;2023-08-06T01:01:04;20.60;99.90
45619;DHT22;31343;47.520;19.144;2023-08-06T01:03:30;20.60;99.90
45619;DHT22;31343;47.520;19.144;2023-08-06T01:05:57;20.60;99.90
45619;DHT22;31343;47.520;19.144;2023-08-06T01:11:18;20.60;99.90
45619;DHT22;31343;47.520;19.144;2023-08-06T01:13:57;20.50;99.90
45619;DHT22;31343;47.520;19.144;2023-08-06T01:16:30;20.40;99.90
45619;DHT22;31343;47.520;19.144;2023-08-06T01:19:05;20.30;99.90
45619;DHT22;31343;47.520;19.144;2023-08-06T01:21:35;20.30;99.90
45619;DHT22;31343;47.520;19.144;2023-08-06T01:24:01;20.20;99.90
45619;DHT22;31343;47.520;19.144;2023-08-06T01:26:36;20.10;99.90
45619;DHT22;31343;47.520;19.144;2023-08-06T01:29:34;20.10;99.90
45619;DHT22;31343;47.520;19.144;2023-08-06T01:32:02;20.00;99.90
45619;DHT22;31343;47.520;19.144;2023-08-06T01:34:31;20.00;99.90
45619;DHT22;31343;47.520;19.144;2023-08-06T01:37:01;20.00;99.90
45619;DHT22;31343;47.520;19.144;2023-08-06T01:39:27;20.10;99.90
45619;DHT22;31343;47.520;19.144;2023-08-06T01:41:55;20.00;99.90
45619;DHT22;31343;47.520;19.144;2023-08-06T01:44:21;19.90;99.90
45619;DHT22;31343;47.520;19.144;2023-08-06T01:46:47;20.00;99.90
45619;DHT22;31343;47.520;19.144;2023-08-06T01:49:18;20.00;99.90
45619;DHT22;31343;47.520;19.144;2023-08-06T01:51:43;20.00;99.90
45619;DHT22;31343;47.520;19.144;2023-08-06T01:54:09;20.00;99.90
45619;DHT22;31343;47.520;19.144;2023-08-06T01:56:37;20.00;99.90
45619;DHT22;31343;47.520;19.144;2023-08-06T01:59:02;20.00;99.90
45619;DHT22;31343;47.520;19.144;2023-08-06T02:01:30;20.10;99.90
45619;DHT22;31343;47.520;19.144;2023-08-06T02:03:57;20.10;99.90
45619;DHT22;31343;47.520;19.144;2023-08-06T02:06:29;20.20;99.90
45619;DHT22;31343;47.520;19.144;2023-08-06T02:08:55;20.20;99.90
45619;DHT22;31343;47.520;19.144;2023-08-06T02:11:21;20.20;99.90
45619;DHT22;31343;47.520;19.144;2023-08-06T02:13:47;20.20;99.90
45619;DHT22;31343;47.520;19.144;2023-08-06T02:16:13;20.20;99.90
45619;DHT22;31343;47.520;19.144;2023-08-06T02:18:39;20.20;99.90
45619;DHT22;31343;47.520;19.144;2023-08-06T02:21:05;20.10;99.90
45619;DHT22;31343;47.520;19.144;2023-08-06T02:23:31;20.00;99.90
45619;DHT22;31343;47.520;19.144;2023-08-06T02:25:58;20.00;99.90
45619;DHT22;31343;47.520;19.144;2023-08-06T02:28:26;20.00;99.90
45619;DHT22;31343;47.520;19.144;2023-08-06T02:30:52;20.10;99.90
45619;DHT22;31343;47.520;19.144;2023-08-06T02:33:23;20.10;99.90
45619;DHT22;31343;47.520;19.144;2023-08-06T02:36:07;20.10;99.90
45619;DHT22;31343;47.520;19.144;2023-08-06T02:38:33;20.00;99.90
45619;DHT22;31343;47.520;19.144;2023-08-06T02:41:02;20.00;99.90
45619;DHT22;31343;47.520;19.144;2023-08-06T02:43:30;20.10;99.90
45619;DHT22;31343;47.520;19.144;2023-08-06T02:46:00;20.00;99.90
45619;DHT22;31343;47.520;19.144;2023-08-06T02:48:30;20.10;99.90
45619;DHT22;31343;47.520;19.144;2023-08-06T02:51:02;20.10;99.90
45619;DHT22;31343;47.520;19.144;2023-08-06T02:53:28;20.00;99.90
45619;DHT22;31343;47.520;19.144;2023-08-06T02:55:53;20.00;99.90
45619;DHT22;31343;47.520;19.144;2023-08-06T02:58:20;19.90;99.90
45619;DHT22;31343;47.520;19.144;2023-08-06T03:01:05;19.80;99.90
45619;DHT22;31343;47.520;19.144;2023-08-06T03:03:31;19.80;99.90
45619;DHT22;31343;47.520;19.144;2023-08-06T03:05:58;19.70;99.90
45619;DHT22;31343;47.520;19.144;2023-08-06T03:08:25;19.70;99.90
45619;DHT22;31343;47.520;19.144;2023-08-06T03:11:00;19.60;99.90
45619;DHT22;31343;47.520;19.144;2023-08-06T03:13:26;19.60;99.90
45619;DHT22;31343;47.520;19.144;2023-08-06T03:15:58;19.50;99.90
45619;DHT22;31343;47.520;19.144;2023-08-06T03:18:26;19.50;99.90
45619;DHT22;31343;47.520;19.144;2023-08-06T03:20:52;19.50;99.90
45619;DHT22;31343;47.520;19.144;2023-08-06T03:23:20;19.50;99.90
45619;DHT22;31343;47.520;19.144;2023-08-06T03:25:46;19.60;99.90
45619;DHT22;31343;47.520;19.144;2023-08-06T03:28:11;19.50;99.90
45619;DHT22;31343;47.520;19.144;2023-08-06T03:30:39;19.50;99.90
45619;DHT22;31343;47.520;19.144;2023-08-06T03:33:14;19.50;99.90
45619;DHT22;31343;47.520;19.144;2023-08-06T03:35:40;19.50;99.90
45619;DHT22;31343;47.520;19.144;2023-08-06T03:38:17;19.50;99.90
45619;DHT22;31343;47.520;19.144;2023-08-06T03:40:42;19.50;99.90
45619;DHT22;31343;47.520;19.144;2023-08-06T03:43:12;19.30;99.90
45619;DHT22;31343;47.520;19.144;2023-08-06T03:45:42;19.30;99.90
45619;DHT22;31343;47.520;19.144;2023-08-06T03:48:17;19.20;99.90
45619;DHT22;31343;47.520;19.144;2023-08-06T03:50:51;19.20;99.90
45619;DHT22;31343;47.520;19.144;2023-08-06T03:53:17;19.10;99.90
45619;DHT22;31343;47.520;19.144;2023-08-06T03:55:42;19.10;99.90
45619;DHT22;31343;47.520;19.144;2023-08-06T03:58:14;19.10;99.90
45619;DHT22;31343;47.520;19.144;2023-08-06T04:00:39;19.00;99.90
45619;DHT22;31343;47.520;19.144;2023-08-06T04:03:07;18.90;99.90
45619;DHT22;31343;47.520;19.144;2023-08-06T04:05:33;18.90;99.90
45619;DHT22;31343;47.520;19.144;2023-08-06T04:07:58;18.80;99.90
45619;DHT22;31343;47.520;19.144;2023-08-06T04:10:28;18.70;99.90
45619;DHT22;31343;47.520;19.144;2023-08-06T04:12:55;18.60;99.90
45619;DHT22;31343;47.520;19.144;2023-08-06T04:15:20;18.60;99.90
45619;DHT22;31343;47.520;19.144;2023-08-06T04:17:48;18.50;99.90
45619;DHT22;31343;47.520;19.144;2023-08-06T04:20:14;18.40;99.90
45619;DHT22;31343;47.520;19.144;2023-08-06T04:22:39;18.40;99.90
45619;DHT22;31343;47.520;19.144;2023-08-06T04:25:12;18.50;99.90
45619;DHT22;31343;47.520;19.144;2023-08-06T04:27:44;18.50;99.90
45619;DHT22;31343;47.520;19.144;2023-08-06T04:30:13;18.40;99.90
45619;DHT22;31343;47.520;19.144;2023-08-06T04:32:40;18.40;99.90
45619;DHT22;31343;47.520;19.144;2023-08-06T04:35:10;18.40;99.90
45619;DHT22;31343;47.520;19.144;2023-08-06T04:37:36;18.40;99.90
45619;DHT22;31343;47.520;19.144;2023-08-06T04:40:02;18.40;99.90
45619;DHT22;31343;47.520;19.144;2023-08-06T04:42:30;18.40;99.90
45619;DHT22;31343;47.520;19.144;2023-08-06T04:45:01;18.40;99.90
45619;DHT22;31343;47.520;19.144;2023-08-06T04:47:37;18.30;99.90
45619;DHT22;31343;47.520;19.144;2023-08-06T04:50:04;18.30;99.90
45619;DHT22;31343;47.520;19.144;2023-08-06T04:52:33;18.30;99.90
45619;DHT22;31343;47.520;19.144;2023-08-06T04:55:05;18.30;99.90
45619;DHT22;31343;47.520;19.144;2023-08-06T04:57:41;18.30;99.90
45619;DHT22;31343;47.520;19.144;2023-08-06T05:00:12;18.30;99.90
45619;DHT22;31343;47.520;19.144;2023-08-06T05:02:45;18.30;99.90
45619;DHT22;31343;47.520;19.144;2023-08-06T05:05:12;18.30;99.90
45619;DHT22;31343;47.520;19.144;2023-08-06T05:07:38;18.40;99.90
45619;DHT22;31343;47.520;19.144;2023-08-06T05:10:04;18.50;99.90
45619;DHT22;31343;47.520;19.144;2023-08-06T05:12:32;18.60;99.90
45619;DHT22;31343;47.520;19.144;2023-08-06T05:14:57;18.60;99.90
45619;DHT22;31343;47.520;19.144;2023-08-06T05:17:32;18.70;99.90
45619;DHT22;31343;47.520;19.144;2023-08-06T05:20:08;18.70;99.90
45619;DHT22;31343;47.520;19.144;2023-08-06T05:22:35;18.60;99.90
45619;DHT22;31343;47.520;19.144;2023-08-06T05:25:02;18.60;99.90
45619;DHT22;31343;47.520;19.144;2023-08-06T05:27:28;18.60;99.90
45619;DHT22;31343;47.520;19.144;2023-08-06T05:29:56;18.50;99.90
45619;DHT22;31343;47.520;19.144;2023-08-06T05:32:23;18.50;99.90
45619;DHT22;31343;47.520;19.144;2023-08-06T05:34:49;18.50;99.90
45619;DHT22;31343;47.520;19.144;2023-08-06T05:37:21;18.50;99.90
45619;DHT22;31343;47.520;19.144;2023-08-06T05:39:49;18.50;99.90
45619;DHT22;31343;47.520;19.144;2023-08-06T05:42:17;18.50;99.90
45619;DHT22;31343;47.520;19.144;2023-08-06T05:44:44;18.50;99.90
45619;DHT22;31343;47.520;19.144;2023-08-06T05:47:10;18.40;99.90
45619;DHT22;31343;47.520;19.144;2023-08-06T05:49:36;18.50;99.90
45619;DHT22;31343;47.520;19.144;2023-08-06T05:52:02;18.50;99.90
45619;DHT22;31343;47.520;19.144;2023-08-06T05:54:31;18.40;99.90
45619;DHT22;31343;47.520;19.144;2023-08-06T05:56:57;18.30;99.90
45619;DHT22;31343;47.520;19.144;2023-08-06T05:59:23;18.40;99.90
45619;DHT22;31343;47.520;19.144;2023-08-06T06:02:14;18.50;99.90
45619;DHT22;31343;47.520;19.144;2023-08-06T06:10:04;18.40;99.90
45619;DHT22;31343;47.520;19.144;2023-08-06T06:12:34;17.70;99.90
45619;DHT22;31343;47.520;19.144;2023-08-06T06:15:15;18.30;99.90
45619;DHT22;31343;47.520;19.144;2023-08-06T06:17:59;18.50;99.90
45619;DHT22;31343;47.520;19.144;2023-08-06T06:21:05;18.50;99.90
45619;DHT22;31343;47.520;19.144;2023-08-06T06:23:35;18.50;99.90
45619;DHT22;31343;47.520;19.144;2023-08-06T06:26:09;18.40;99.90
45619;DHT22;31343;47.520;19.144;2023-08-06T06:28:52;18.50;99.90
45619;DHT22;31343;47.520;19.144;2023-08-06T06:31:50;18.60;99.90
45619;DHT22;31343;47.520;19.144;2023-08-06T06:34:19;18.70;99.90
45619;DHT22;31343;47.520;19.144;2023-08-06T06:36:53;18.60;99.90
45619;DHT22;31343;47.520;19.144;2023-08-06T06:50:18;18.70;99.90
45619;DHT22;31343;47.520;19.144;2023-08-06T06:58:44;18.80;99.90
45619;DHT22;31343;47.520;19.144;2023-08-06T07:01:30;18.70;99.90
45619;DHT22;31343;47.520;19.144;2023-08-06T07:03:59;18.80;99.90
45619;DHT22;31343;47.520;19.144;2023-08-06T07:06:35;18.80;99.90
45619;DHT22;31343;47.520;19.144;2023-08-06T07:11:50;18.80;99.90
45619;DHT22;31343;47.520;19.144;2023-08-06T07:14:28;19.00;99.90
45619;DHT22;31343;47.520;19.144;2023-08-06T07:16:57;18.80;99.90
45619;DHT22;31343;47.520;19.144;2023-08-06T07:19:31;18.60;99.90
45619;DHT22;31343;47.520;19.144;2023-08-06T07:22:00;18.70;99.90
45619;DHT22;31343;47.520;19.144;2023-08-06T07:24:30;18.80;99.90
45619;DHT22;31343;47.520;19.144;2023-08-06T07:27:01;17.90;99.90
45619;DHT22;31343;47.520;19.144;2023-08-06T07:29:43;19.70;99.90
45619;DHT22;31343;47.520;19.144;2023-08-06T07:32:15;18.30;99.90
45619;DHT22;31343;47.520;19.144;2023-08-06T07:34:54;18.70;99.90
45619;DHT22;31343;47.520;19.144;2023-08-06T07:37:25;17.10;99.90
45619;DHT22;31343;47.520;19.144;2023-08-06T07:40:00;18.40;99.90
45619;DHT22;31343;47.520;19.144;2023-08-06T07:42:27;18.40;99.90
45619;DHT22;31343;47.520;19.144;2023-08-06T07:44:58;18.40;99.90
45619;DHT22;31343;47.520;19.144;2023-08-06T07:47:33;18.50;99.90
45619;DHT22;31343;47.520;19.144;2023-08-06T07:50:06;18.40;99.90
45619;DHT22;31343;47.520;19.144;2023-08-06T07:52:34;18.70;99.90
45619;DHT22;31343;47.520;19.144;2023-08-06T08:04:43;18.60;99.90
45619;DHT22;31343;47.520;19.144;2023-08-06T08:23:59;17.90;99.90
45619;DHT22;31343;47.520;19.144;2023-08-06T08:26:32;18.60;99.90
45619;DHT22;31343;47.520;19.144;2023-08-06T08:29:12;18.60;99.90
45619;DHT22;31343;47.520;19.144;2023-08-06T08:31:40;18.10;99.90
45619;DHT22;31343;47.520;19.144;2023-08-06T08:34:16;18.70;99.90
45619;DHT22;31343;47.520;19.144;2023-08-06T08:36:47;18.90;99.90
45619;DHT22;31343;47.520;19.144;2023-08-06T08:39:18;19.00;99.90
45619;DHT22;31343;47.520;19.144;2023-08-06T08:41:50;18.70;99.90
45619;DHT22;31343;47.520;19.144;2023-08-06T08:44:22;18.80;99.90
45619;DHT22;31343;47.520;19.144;2023-08-06T08:47:00;18.70;99.90
45619;DHT22;31343;47.520;19.144;2023-08-06T08:49:29;18.50;99.90
45619;DHT22;31343;47.520;19.144;2023-08-06T08:52:01;18.50;99.90
45619;DHT22;31343;47.520;19.144;2023-08-06T08:54:34;18.40;99.90
45619;DHT22;31343;47.520;19.144;2023-08-06T08:57:02;18.30;99.90
45619;DHT22;31343;47.520;19.144;2023-08-06T08:59:38;18.40;99.90
45619;DHT22;31343;47.520;19.144;2023-08-06T09:02:15;18.60;99.90
45619;DHT22;31343;47.520;19.144;2023-08-06T09:04:42;18.80;99.90
45619;DHT22;31343;47.520;19.144;2023-08-06T09:07:18;18.90;99.90
45619;DHT22;31343;47.520;19.144;2023-08-06T09:09:49;19.10;99.90
45619;DHT22;31343;47.520;19.144;2023-08-06T09:12:18;19.10;99.90
45619;DHT22;31343;47.520;19.144;2023-08-06T09:14:47;19.20;99.90
45619;DHT22;31343;47.520;19.144;2023-08-06T09:17:15;19.30;99.90
45619;DHT22;31343;47.520;19.144;2023-08-06T09:19:48;18.80;99.90
45619;DHT22;31343;47.520;19.144;2023-08-06T09:22:22;18.70;99.90
45619;DHT22;31343;47.520;19.144;2023-08-06T09:24:52;19.20;99.90
45619;DHT22;31343;47.520;19.144;2023-08-06T09:27:19;19.10;99.90
45619;DHT22;31343;47.520;19.144;2023-08-06T09:29:50;19.20;99.90
45619;DHT22;31343;47.520;19.144;2023-08-06T09:32:19;20.10;99.90
45619;DHT22;31343;47.520;19.144;2023-08-06T09:34:55;19.30;99.90
45619;DHT22;31343;47.520;19.144;2023-08-06T09:37:22;19.40;99.90
45619;DHT22;31343;47.520;19.144;2023-08-06T09:39:51;19.20;99.90
45619;DHT22;31343;47.520;19.144;2023-08-06T09:42:21;18.90;99.90
45619;DHT22;31343;47.520;19.144;2023-08-06T09:44:49;19.00;99.90
45619;DHT22;31343;47.520;19.144;2023-08-06T09:47:20;18.90;99.90
45619;DHT22;31343;47.520;19.144;2023-08-06T09:49:56;18.60;99.90
45619;DHT22;31343;47.520;19.144;2023-08-06T09:52:30;18.60;99.90
45619;DHT22;31343;47.520;19.144;2023-08-06T09:55:08;19.00;99.90
45619;DHT22;31343;47.520;19.144;2023-08-06T09:57:37;19.00;99.90
45619;DHT22;31343;47.520;19.144;2023-08-06T10:00:13;19.00;99.90
45619;DHT22;31343;47.520;19.144;2023-08-06T10:02:50;19.10;99.90
45619;DHT22;31343;47.520;19.144;2023-08-06T10:05:28;19.20;99.90
45619;DHT22;31343;47.520;19.144;2023-08-06T10:08:02;19.20;99.90
45619;DHT22;31343;47.520;19.144;2023-08-06T10:10:49;19.10;99.90
45619;DHT22;31343;47.520;19.144;2023-08-06T10:13:17;19.00;99.90
45619;DHT22;31343;47.520;19.144;2023-08-06T10:15:54;18.90;99.90
45619;DHT22;31343;47.520;19.144;2023-08-06T10:18:28;19.70;99.90
45619;DHT22;31343;47.520;19.144;2023-08-06T10:22:07;18.90;99.90
45619;DHT22;31343;47.520;19.144;2023-08-06T10:24:56;18.90;99.90
45619;DHT22;31343;47.520;19.144;2023-08-06T10:27:59;18.70;99.90
45619;DHT22;31343;47.520;19.144;2023-08-06T10:30:32;18.80;99.90
45619;DHT22;31343;47.520;19.144;2023-08-06T10:33:21;18.80;99.90
45619;DHT22;31343;47.520;19.144;2023-08-06T10:36:15;18.80;99.90
45619;DHT22;31343;47.520;19.144;2023-08-06T10:39:01;18.90;99.90
45619;DHT22;31343;47.520;19.144;2023-08-06T10:41:42;18.80;99.90
45619;DHT22;31343;47.520;19.144;2023-08-06T10:44:25;18.80;99.90
45619;DHT22;31343;47.520;19.144;2023-08-06T10:47:32;18.80;99.90
45619;DHT22;31343;47.520;19.144;2023-08-06T10:50:17;18.80;99.90
45619;DHT22;31343;47.520;19.144;2023-08-06T10:53:04;18.90;99.90
45619;DHT22;31343;47.520;19.144;2023-08-06T10:55:46;18.80;99.90
45619;DHT22;31343;47.520;19.144;2023-08-06T10:58:30;18.80;99.90
45619;DHT22;31343;47.520;19.144;2023-08-06T11:01:28;19.90;99.90
45619;DHT22;31343;47.520;19.144;2023-08-06T11:04:24;18.90;99.90
45619;DHT22;31343;47.520;19.144;2023-08-06T11:06:57;18.80;99.90
45619;DHT22;31343;47.520;19.144;2023-08-06T11:09:43;18.80;99.90
45619;DHT22;31343;47.520;19.144;2023-08-06T11:12:18;18.90;99.90
45619;DHT22;31343;47.520;19.144;2023-08-06T11:18:28;19.00;99.90
45619;DHT22;31343;47.520;19.144;2023-08-06T11:21:04;18.70;99.90
45619;DHT22;31343;47.520;19.144;2023-08-06T11:23:43;19.20;99.90
45619;DHT22;31343;47.520;19.144;2023-08-06T11:26:20;19.10;99.90
45619;DHT22;31343;47.520;19.144;2023-08-06T11:29:16;19.20;99.90
45619;DHT22;31343;47.520;19.144;2023-08-06T11:31:49;19.40;99.90
45619;DHT22;31343;47.520;19.144;2023-08-06T11:34:45;19.50;99.90
45619;DHT22;31343;47.520;19.144;2023-08-06T11:37:31;19.80;99.90
45619;DHT22;31343;47.520;19.144;2023-08-06T11:39:59;19.90;99.90
45619;DHT22;31343;47.520;19.144;2023-08-06T11:42:32;19.80;99.90
45619;DHT22;31343;47.520;19.144;2023-08-06T11:45:06;19.90;99.90
45619;DHT22;31343;47.520;19.144;2023-08-06T11:47:54;19.70;99.90
45619;DHT22;31343;47.520;19.144;2023-08-06T11:50:57;19.70;99.90
45619;DHT22;31343;47.520;19.144;2023-08-06T11:54:01;19.80;99.90
45619;DHT22;31343;47.520;19.144;2023-08-06T11:56:42;19.10;99.90
45619;DHT22;31343;47.520;19.144;2023-08-06T11:59:46;19.50;99.90
45619;DHT22;31343;47.520;19.144;2023-08-06T12:02:15;19.50;99.90
45619;DHT22;31343;47.520;19.144;2023-08-06T12:07:58;19.40;99.90
45619;DHT22;31343;47.520;19.144;2023-08-06T12:10:27;19.30;99.90
45619;DHT22;31343;47.520;19.144;2023-08-06T12:13:04;19.30;99.90
45619;DHT22;31343;47.520;19.144;2023-08-06T12:15:32;19.30;99.90
45619;DHT22;31343;47.520;19.144;2023-08-06T12:18:07;19.20;99.90
45619;DHT22;31343;47.520;19.144;2023-08-06T12:20:41;19.20;99.90
45619;DHT22;31343;47.520;19.144;2023-08-06T12:23:15;19.30;99.90
45619;DHT22;31343;47.520;19.144;2023-08-06T12:25:44;18.60;99.90
45619;DHT22;31343;47.520;19.144;2023-08-06T12:28:28;19.40;99.90
45619;DHT22;31343;47.520;19.144;2023-08-06T12:31:06;19.30;99.90
45619;DHT22;31343;47.520;19.144;2023-08-06T12:33:40;19.20;99.90
45619;DHT22;31343;47.520;19.144;2023-08-06T12:55:43;18.80;99.90
45619;DHT22;31343;47.520;19.144;2023-08-06T13:17:59;18.60;99.90
45619;DHT22;31343;47.520;19.144;2023-08-06T13:20:31;18.00;99.90
45619;DHT22;31343;47.520;19.144;2023-08-06T13:22:59;18.60;99.90
45619;DHT22;31343;47.520;19.144;2023-08-06T13:28:30;18.60;99.90
45619;DHT22;31343;47.520;19.144;2023-08-06T13:31:02;18.60;99.90
45619;DHT22;31343;47.520;19.144;2023-08-06T13:33:31;18.60;99.90
45619;DHT22;31343;47.520;19.144;2023-08-06T13:36:00;18.50;99.90
45619;DHT22;31343;47.520;19.144;2023-08-06T13:38:50;18.60;99.90
45619;DHT22;31343;47.520;19.144;2023-08-06T13:41:32;18.60;99.90
45619;DHT22;31343;47.520;19.144;2023-08-06T13:44:02;18.20;99.90
45619;DHT22;31343;47.520;19.144;2023-08-06T13:46:37;18.80;99.90
45619;DHT22;31343;47.520;19.144;2023-08-06T13:49:29;18.80;99.90
45619;DHT22;31343;47.520;19.144;2023-08-06T13:52:00;18.60;99.90
45619;DHT22;31343;47.520;19.144;2023-08-06T13:54:27;18.90;99.90
45619;DHT22;31343;47.520;19.144;2023-08-06T13:57:01;19.20;99.90
45619;DHT22;31343;47.520;19.144;2023-08-06T13:59:29;19.00;99.90
45619;DHT22;31343;47.520;19.144;2023-08-06T14:02:01;18.90;99.90
45619;DHT22;31343;47.520;19.144;2023-08-06T14:04:52;18.50;99.90
45619;DHT22;31343;47.520;19.144;2023-08-06T14:07:46;18.70;99.90
45619;DHT22;31343;47.520;19.144;2023-08-06T14:14:03;18.70;99.90
45619;DHT22;31343;47.520;19.144;2023-08-06T14:20:20;18.50;99.90
45619;DHT22;31343;47.520;19.144;2023-08-06T14:23:39;18.80;99.90
45619;DHT22;31343;47.520;19.144;2023-08-06T14:33:28;19.00;99.90
45619;DHT22;31343;47.520;19.144;2023-08-06T14:39:40;19.10;99.90
45619;DHT22;31343;47.520;19.144;2023-08-06T14:48:33;19.30;99.90
45619;DHT22;31343;47.520;19.144;2023-08-06T14:51:25;19.40;99.90
45619;DHT22;31343;47.520;19.144;2023-08-06T14:53:57;19.20;99.90
45619;DHT22;31343;47.520;19.144;2023-08-06T14:56:31;19.30;99.90
45619;DHT22;31343;47.520;19.144;2023-08-06T14:59:00;19.30;99.90
45619;DHT22;31343;47.520;19.144;2023-08-06T15:01:43;19.30;99.90
45619;DHT22;31343;47.520;19.144;2023-08-06T15:04:20;19.40;99.90
45619;DHT22;31343;47.520;19.144;2023-08-06T15:06:48;19.50;99.90
45619;DHT22;31343;47.520;19.144;2023-08-06T15:09:20;19.40;99.90
45619;DHT22;31343;47.520;19.144;2023-08-06T15:12:09;19.40;99.90
45619;DHT22;31343;47.520;19.144;2023-08-06T15:15:00;19.30;99.90
45619;DHT22;31343;47.520;19.144;2023-08-06T15:17:36;19.20;99.90
45619;DHT22;31343;47.520;19.144;2023-08-06T15:27:50;19.30;99.90
45619;DHT22;31343;47.520;19.144;2023-08-06T15:39:41;19.30;99.90
45619;DHT22;31343;47.520;19.144;2023-08-06T15:42:39;19.30;99.90
45619;DHT22;31343;47.520;19.144;2023-08-06T15:45:05;18.90;99.90
45619;DHT22;31343;47.520;19.144;2023-08-06T15:54:06;19.10;99.90
45619;DHT22;31343;47.520;19.144;2023-08-06T16:10:13;19.40;99.90
45619;DHT22;31343;47.520;19.144;2023-08-06T16:15:24;19.20;99.90
45619;DHT22;31343;47.520;19.144;2023-08-06T16:18:01;19.20;99.90
45619;DHT22;31343;47.520;19.144;2023-08-06T16:20:34;19.20;99.90
45619;DHT22;31343;47.520;19.144;2023-08-06T16:23:13;19.10;99.90
45619;DHT22;31343;47.520;19.144;2023-08-06T16:25:39;19.10;99.90
45619;DHT22;31343;47.520;19.144;2023-08-06T16:28:15;19.10;99.90
45619;DHT22;31343;47.520;19.144;2023-08-06T16:30:48;19.60;99.90
45619;DHT22;31343;47.520;19.144;2023-08-06T16:33:20;19.00;99.90
45619;DHT22;31343;47.520;19.144;2023-08-06T16:35:59;19.10;99.90
45619;DHT22;31343;47.520;19.144;2023-08-06T16:38:33;19.20;99.90
45619;DHT22;31343;47.520;19.144;2023-08-06T16:41:10;19.10;99.90
45619;DHT22;31343;47.520;19.144;2023-08-06T16:43:37;19.20;99.90
45619;DHT22;31343;47.520;19.144;2023-08-06T16:46:07;19.20;99.90
45619;DHT22;31343;47.520;19.144;2023-08-06T16:51:30;19.20;99.90
45619;DHT22;31343;47.520;19.144;2023-08-06T16:54:13;19.20;99.90
45619;DHT22;31343;47.520;19.144;2023-08-06T16:57:00;18.80;99.90
45619;DHT22;31343;47.520;19.144;2023-08-06T16:59:32;19.30;99.90
45619;DHT22;31343;47.520;19.144;2023-08-06T17:02:00;19.10;99.90
45619;DHT22;31343;47.520;19.144;2023-08-06T17:04:26;19.20;99.90
45619;DHT22;31343;47.520;19.144;2023-08-06T17:06:57;19.00;99.90
45619;DHT22;31343;47.520;19.144;2023-08-06T17:09:29;18.90;99.90
45619;DHT22;31343;47.520;19.144;2023-08-06T17:15:56;18.70;99.90
45619;DHT22;31343;47.520;19.144;2023-08-06T17:26:08;18.70;99.90
45619;DHT22;31343;47.520;19.144;2023-08-06T17:32:11;18.70;99.90
45619;DHT22;31343;47.520;19.144;2023-08-06T17:35:06;18.60;99.90
45619;DHT22;31343;47.520;19.144;2023-08-06T17:37:35;18.60;99.90
45619;DHT22;31343;47.520;19.144;2023-08-06T17:40:20;18.50;99.90
45619;DHT22;31343;47.520;19.144;2023-08-06T17:42:48;18.50;99.90
45619;DHT22;31343;47.520;19.144;2023-08-06T17:47:51;18.40;99.90
45619;DHT22;31343;47.520;19.144;2023-08-06T17:52:52;18.40;99.90
45619;DHT22;31343;47.520;19.144;2023-08-06T18:01:30;18.10;99.90
45619;DHT22;31343;47.520;19.144;2023-08-06T18:06:58;18.00;99.90
45619;DHT22;31343;47.520;19.144;2023-08-06T18:09:26;18.00;99.90
45619;DHT22;31343;47.520;19.144;2023-08-06T18:12:11;17.90;99.90
45619;DHT22;31343;47.520;19.144;2023-08-06T18:14:47;17.90;99.90
45619;DHT22;31343;47.520;19.144;2023-08-06T18:17:43;17.80;99.90
45619;DHT22;31343;47.520;19.144;2023-08-06T18:20:14;18.50;99.90
45619;DHT22;31343;47.520;19.144;2023-08-06T18:25:22;17.60;99.90
45619;DHT22;31343;47.520;19.144;2023-08-06T18:38:19;17.50;99.90
45619;DHT22;31343;47.520;19.144;2023-08-06T18:41:01;17.50;99.90
45619;DHT22;31343;47.520;19.144;2023-08-06T18:43:35;17.40;99.90
45619;DHT22;31343;47.520;19.144;2023-08-06T18:46:02;17.50;99.90
45619;DHT22;31343;47.520;19.144;2023-08-06T18:48:37;17.30;99.90
45619;DHT22;31343;47.520;19.144;2023-08-06T18:51:03;17.40;99.90
45619;DHT22;31343;47.520;19.144;2023-08-06T18:53:32;16.60;99.90
45619;DHT22;31343;47.520;19.144;2023-08-06T18:56:20;17.40;99.90
45619;DHT22;31343;47.520;19.144;2023-08-06T18:59:02;17.30;99.90
45619;DHT22;31343;47.520;19.144;2023-08-06T19:09:36;17.20;99.90
45619;DHT22;31343;47.520;19.144;2023-08-06T19:12:02;17.30;99.90
45619;DHT22;31343;47.520;19.144;2023-08-06T19:14:33;17.30;99.90
45619;DHT22;31343;47.520;19.144;2023-08-06T19:17:00;17.30;99.90
